Time;durP1;ratioP1;P1;durP2;ratioP2;P2;SDS_P1;SDS_P2;PMS_P1;PMS_P2;Temp;Humidity;BMP_temperature;BMP_pressure;BME280_temperature;BME280_humidity;BME280_pressure;Samples;Min_cycle;Max_cycle;Signal;HPM_P1;HPM_P2
2023/11/26 00:01:53;;;;;;;50.13;30.05;;;0.90;99.90;;;0.02;100.00;101736.91;4166536;28;20025;-77
2023/11/26 00:03:54;;;;;;;54.05;28.60;;;0.90;99.90;;;0.03;100.00;101736.00;4168894;28;20480;-77
2023/11/26 00:05:55;;;;;;;47.97;28.20;;;0.90;99.90;;;-0.02;100.00;101738.78;4184935;28;20029;-76
2023/11/26 00:07:55;;;;;;;51.40;29.85;;;0.90;99.90;;;-0.01;100.00;101735.28;4184326;28;20029;-77
2023/11/26 00:09:56;;;;;;;56.33;30.15;;;0.80;99.90;;;-0.06;100.00;101730.28;4184855;28;20040;-77
2023/11/26 00:11:57;;;;;;;57.20;32.40;;;0.80;99.90;;;-0.06;100.00;101740.66;4164857;28;20109;-77
2023/11/26 00:13:58;;;;;;;55.90;29.38;;;0.80;99.90;;;-0.12;100.00;101733.13;4145168;28;20041;-77
2023/11/26 00:16:01;;;;;;;55.30;29.02;;;0.80;99.90;;;-0.15;100.00;101741.03;4150828;28;20025;-77
2023/11/26 00:18:02;;;;;;;60.05;32.05;;;0.80;99.90;;;-0.19;100.00;101736.91;4150384;28;20095;-76
2023/11/26 00:20:06;;;;;;;56.47;29.70;;;0.70;99.90;;;-0.16;100.00;101741.09;4167030;28;20025;-77
2023/11/26 00:22:07;;;;;;;49.10;27.90;;;0.70;99.90;;;-0.18;100.00;101732.56;4164525;28;20484;-76
2023/11/26 00:24:08;;;;;;;44.75;27.13;;;0.70;99.90;;;-0.17;100.00;101739.41;4132241;28;20041;-77
2023/11/26 00:26:09;;;;;;;52.45;31.27;;;0.70;99.90;;;-0.20;100.00;101740.38;4168257;28;20396;-77
2023/11/26 00:28:09;;;;;;;52.70;29.77;;;0.70;99.90;;;-0.26;100.00;101745.81;4173629;28;20028;-77
2023/11/26 00:30:11;;;;;;;54.78;28.33;;;0.70;99.90;;;-0.27;100.00;101748.50;4166858;28;20025;-77
2023/11/26 00:32:11;;;;;;;54.75;30.52;;;0.60;99.90;;;-0.32;100.00;101740.88;4184665;28;20024;-77
2023/11/26 00:34:12;;;;;;;48.90;26.95;;;0.60;99.90;;;-0.31;100.00;101742.56;4167544;28;20056;-77
2023/11/26 00:36:15;;;;;;;53.03;26.80;;;0.60;99.90;;;-0.29;100.00;101745.94;4183001;28;20025;-77
2023/11/26 00:38:16;;;;;;;52.53;26.70;;;0.60;99.90;;;-0.28;100.00;101746.78;4162967;28;20071;-77
2023/11/26 00:40:23;;;;;;;51.88;28.10;;;0.60;99.90;;;-0.38;100.00;101727.31;4148177;28;20034;-77
2023/11/26 00:42:24;;;;;;;47.13;27.05;;;0.60;99.90;;;-0.38;100.00;101740.28;4150428;28;20058;-77
2023/11/26 00:44:26;;;;;;;48.83;25.15;;;0.50;99.90;;;-0.38;100.00;101735.94;4174677;28;20415;-77
2023/11/26 00:46:26;;;;;;;50.10;25.35;;;0.50;99.90;;;-0.39;100.00;101738.63;4184260;28;20114;-77
2023/11/26 00:48:27;;;;;;;42.22;26.02;;;0.50;99.90;;;-0.40;100.00;101742.94;4169640;28;20030;-76
2023/11/26 00:50:28;;;;;;;46.03;28.20;;;0.50;99.90;;;-0.46;100.00;101732.81;4172717;28;20029;-75
2023/11/26 00:52:31;;;;;;;42.63;26.00;;;0.50;99.90;;;-0.44;100.00;101740.53;4158238;28;20413;-75
2023/11/26 00:54:32;;;;;;;45.35;27.33;;;0.50;99.90;;;-0.51;100.00;101732.19;4172926;28;20053;-76
2023/11/26 00:56:33;;;;;;;54.47;27.08;;;0.50;99.90;;;-0.55;100.00;101733.19;4171840;28;20026;-76
2023/11/26 00:58:34;;;;;;;54.25;29.80;;;0.40;99.90;;;-0.59;100.00;101731.63;4173231;28;20040;-76
2023/11/26 01:00:34;;;;;;;52.20;29.20;;;0.40;99.90;;;-0.66;100.00;101732.78;4155691;28;20037;-76
2023/11/26 01:02:35;;;;;;;58.65;32.00;;;0.30;99.90;;;-0.67;100.00;101742.31;4155635;28;20032;-77
2023/11/26 01:04:36;;;;;;;46.90;28.50;;;0.30;99.90;;;-0.73;100.00;101742.53;4155883;28;20065;-77
2023/11/26 01:06:38;;;;;;;47.60;27.75;;;0.30;99.90;;;-0.78;100.00;101728.94;4173749;28;20031;-76
2023/11/26 01:08:38;;;;;;;48.17;27.98;;;0.20;99.90;;;-0.79;100.00;101727.25;4174375;28;20025;-76
2023/11/26 01:10:39;;;;;;;49.10;30.02;;;0.20;99.90;;;-0.82;100.00;101731.69;4172723;28;20026;-76
2023/11/26 01:12:40;;;;;;;51.13;27.30;;;0.10;99.90;;;-0.85;100.00;101735.25;4172567;28;20029;-76
2023/11/26 01:14:41;;;;;;;51.33;28.83;;;0.10;99.90;;;-0.88;100.00;101730.19;4189182;28;20028;-76
2023/11/26 01:16:42;;;;;;;47.65;27.90;;;0.10;99.90;;;-0.84;100.00;101730.91;4172741;28;20037;-76
2023/11/26 01:18:42;;;;;;;45.65;27.92;;;0.10;99.90;;;-0.83;100.00;101736.03;4190313;28;20029;-76
2023/11/26 01:20:43;;;;;;;36.08;24.05;;;0.10;99.90;;;-0.84;100.00;101725.72;4180399;28;20030;-76
2023/11/26 01:22:44;;;;;;;49.55;26.52;;;0.10;99.90;;;-0.81;100.00;101729.06;4172750;28;20120;-76
2023/11/26 01:24:45;;;;;;;41.63;23.42;;;0.10;99.90;;;-0.83;100.00;101727.41;4173869;28;20037;-76
2023/11/26 01:26:46;;;;;;;63.78;37.13;;;0.10;99.90;;;-0.87;100.00;101718.94;4172691;28;20026;-76
2023/11/26 01:28:46;;;;;;;58.63;35.65;;;0.10;99.90;;;-0.83;100.00;101723.06;4173762;28;20028;-76
2023/11/26 01:30:47;;;;;;;57.47;33.53;;;0.10;99.90;;;-0.85;100.00;101711.09;4173786;28;20093;-76
2023/11/26 01:32:48;;;;;;;39.38;25.27;;;0.10;99.90;;;-0.81;100.00;101720.44;4172684;28;20060;-75
2023/11/26 01:34:49;;;;;;;39.67;22.88;;;0.10;99.90;;;-0.87;100.00;101720.69;4173775;28;20075;-76
2023/11/26 01:36:50;;;;;;;39.42;23.58;;;0.10;99.90;;;-0.92;100.00;101713.06;4173514;28;20029;-76
2023/11/26 01:38:51;;;;;;;40.70;24.98;;;0.10;99.90;;;-0.92;100.00;101722.56;4172428;28;20029;-76
2023/11/26 01:40:51;;;;;;;39.80;23.77;;;0.00;99.90;;;-0.95;100.00;101718.38;4173758;28;20033;-76
2023/11/26 01:42:52;;;;;;;44.83;28.85;;;0.00;99.90;;;-0.96;100.00;101716.69;4179644;28;20033;-76
2023/11/26 01:44:53;;;;;;;46.92;29.30;;;0.00;99.90;;;-0.96;100.00;101706.34;4190125;28;20044;-76
2023/11/26 01:46:56;;;;;;;44.95;27.50;;;0.00;99.90;;;-0.95;100.00;101708.00;4172223;28;20099;-76
2023/11/26 01:48:58;;;;;;;57.72;30.02;;;0.00;99.90;;;-0.95;100.00;101707.16;4172678;28;20092;-76
2023/11/26 01:50:59;;;;;;;50.00;29.20;;;0.00;99.90;;;-0.89;100.00;101709.50;4156197;28;20030;-76
2023/11/26 01:53:00;;;;;;;43.20;24.90;;;0.00;99.90;;;-0.89;100.00;101705.19;4188170;28;20369;-76
2023/11/26 01:55:01;;;;;;;33.17;20.88;;;0.00;99.90;;;-0.88;100.00;101721.56;4172296;28;20073;-76
2023/11/26 01:57:04;;;;;;;40.10;23.30;;;0.00;99.90;;;-0.93;100.00;101710.56;4184634;28;20408;-76
2023/11/26 01:59:05;;;;;;;36.92;21.75;;;0.00;99.90;;;-0.98;100.00;101709.88;4180793;28;20429;-76
2023/11/26 02:01:06;;;;;;;33.63;20.77;;;0.00;99.90;;;-1.02;100.00;101711.75;4168940;28;20040;-76
2023/11/26 02:03:07;;;;;;;34.53;21.58;;;-0.10;99.90;;;-1.09;100.00;101694.75;4169630;28;20030;-76
2023/11/26 02:05:12;;;;;;;34.47;20.98;;;-0.10;99.90;;;-1.14;100.00;101692.34;4169794;28;20040;-76
2023/11/26 02:07:12;;;;;;;37.70;22.70;;;-0.10;99.90;;;-1.09;100.00;101701.69;4169489;28;20108;-76
2023/11/26 02:09:16;;;;;;;41.85;22.13;;;-0.20;99.90;;;-1.10;100.00;101695.66;4187340;28;20025;-76
2023/11/26 02:11:17;;;;;;;36.08;20.98;;;-0.20;99.90;;;-1.11;100.00;101692.22;4169896;28;20032;-75
2023/11/26 02:13:18;;;;;;;33.92;20.35;;;-0.20;99.90;;;-1.07;100.00;101692.94;4187100;28;20033;-75
2023/11/26 02:15:19;;;;;;;32.85;20.27;;;-0.10;99.90;;;-1.14;100.00;101670.81;4170793;28;20075;-76
2023/11/26 02:17:20;;;;;;;34.10;20.40;;;-0.10;99.90;;;-1.06;100.00;101680.84;4169285;28;20029;-76
2023/11/26 02:19:38;;;;;;;35.55;22.10;;;-0.10;99.90;;;-1.08;100.00;101687.84;4153058;28;20036;-76
2023/11/26 02:21:39;;;;;;;32.45;20.35;;;-0.10;99.90;;;-1.12;100.00;101682.78;4169473;28;20029;-76
2023/11/26 02:23:40;;;;;;;31.83;19.50;;;-0.20;99.90;;;-1.17;100.00;101682.13;4169345;28;20033;-76
2023/11/26 02:25:41;;;;;;;35.83;20.23;;;-0.20;99.90;;;-1.15;100.00;101688.06;4152978;28;20504;-76
2023/11/26 02:27:42;;;;;;;26.10;17.13;;;-0.20;99.90;;;-1.14;100.00;101687.19;4170881;28;20030;-76
2023/11/26 02:29:43;;;;;;;29.45;17.95;;;-0.20;99.90;;;-1.14;100.00;101687.19;4170622;28;20025;-76
2023/11/26 02:31:44;;;;;;;29.90;19.27;;;-0.20;99.90;;;-1.17;100.00;101684.72;4170545;28;20032;-75
2023/11/26 02:33:44;;;;;;;32.38;19.80;;;-0.20;99.90;;;-1.19;100.00;101681.31;4169254;28;20484;-76
2023/11/26 02:35:45;;;;;;;33.67;17.45;;;-0.20;99.90;;;-1.18;100.00;101682.16;4170599;28;20076;-76
2023/11/26 02:37:47;;;;;;;24.10;17.05;;;-0.20;99.90;;;-1.17;100.00;101676.09;4170367;28;20025;-76
2023/11/26 02:39:48;;;;;;;25.20;15.15;;;-0.20;99.90;;;-1.19;100.00;101668.38;4152785;28;20116;-76
2023/11/26 02:41:49;;;;;;;28.65;18.75;;;-0.20;99.90;;;-1.17;100.00;101671.75;4144495;28;20065;-76
2023/11/26 02:43:50;;;;;;;27.40;17.35;;;-0.20;99.90;;;-1.16;100.00;101686.38;4168686;28;20566;-76
2023/11/26 02:45:56;;;;;;;30.17;20.50;;;-0.20;99.90;;;-1.19;100.00;101677.88;4186505;28;20037;-76
2023/11/26 02:47:57;;;;;;;28.80;18.92;;;-0.20;99.90;;;-1.23;100.00;101682.34;4186791;28;20060;-76
2023/11/26 02:49:58;;;;;;;33.90;19.17;;;-0.20;99.90;;;-1.24;100.00;101680.66;4169039;28;20025;-76
2023/11/26 02:51:59;;;;;;;32.30;18.98;;;-0.30;99.90;;;-1.22;100.00;101684.00;4166132;28;20074;-76
2023/11/26 02:53:59;;;;;;;35.53;20.40;;;-0.30;99.90;;;-1.17;100.00;101687.28;4152404;28;20030;-76
2023/11/26 02:56:00;;;;;;;28.75;18.63;;;-0.30;99.90;;;-1.21;100.00;101679.69;4186732;28;20037;-76
2023/11/26 02:58:01;;;;;;;24.70;14.90;;;-0.30;99.90;;;-1.17;100.00;101686.44;4155290;28;20034;-76
2023/11/26 03:00:08;;;;;;;33.47;21.42;;;-0.30;99.90;;;-1.16;100.00;101683.78;4152674;28;20034;-76
2023/11/26 03:02:09;;;;;;;33.65;21.23;;;-0.20;99.90;;;-1.22;100.00;101675.41;4170153;28;20029;-76
2023/11/26 03:04:10;;;;;;;37.78;21.90;;;-0.20;99.90;;;-1.29;100.00;101671.38;4170094;28;20034;-75
2023/11/26 03:06:11;;;;;;;40.55;24.48;;;-0.30;99.90;;;-1.27;100.00;101679.91;4168418;28;20033;-78
2023/11/26 03:08:21;;;;;;;31.83;19.45;;;-0.30;99.90;;;-1.33;100.00;101672.38;4170032;28;20159;-78
2023/11/26 03:15:02;;;;;;;29.52;18.38;;;-0.40;99.90;;;-1.31;100.00;101671.44;4168025;28;20036;-78
2023/11/26 03:17:04;;;;;;;31.08;19.13;;;-0.40;99.90;;;-1.34;100.00;101666.38;4154707;28;20029;-78
2023/11/26 03:19:04;;;;;;;33.45;18.25;;;-0.30;99.90;;;-1.33;100.00;101664.63;4168777;28;20424;-78
2023/11/26 03:21:06;;;;;;;27.42;17.02;;;-0.30;99.90;;;-1.34;100.00;101663.78;4168664;28;20037;-78
2023/11/26 03:23:09;;;;;;;26.52;16.33;;;-0.30;99.90;;;-1.33;100.00;101670.66;4168651;28;20109;-78
2023/11/26 03:25:10;;;;;;;28.60;16.88;;;-0.30;99.90;;;-1.31;100.00;101666.25;4168992;28;20093;-78
2023/11/26 03:27:13;;;;;;;28.38;17.08;;;-0.30;99.90;;;-1.27;100.00;101665.25;4186239;28;20017;-78
2023/11/26 03:29:14;;;;;;;30.92;16.67;;;-0.30;99.90;;;-1.23;100.00;101661.66;4168402;28;20127;-78
2023/11/26 03:31:15;;;;;;;20.48;13.90;;;-0.30;99.90;;;-1.21;100.00;101658.97;4186170;28;20498;-78
2023/11/26 03:33:17;;;;;;;27.70;17.58;;;-0.20;99.90;;;-1.16;100.00;101652.72;4186066;28;20553;-78
2023/11/26 03:35:18;;;;;;;26.00;15.05;;;-0.20;99.90;;;-1.18;100.00;101654.53;4186007;28;20028;-78
2023/11/26 03:37:19;;;;;;;26.85;16.10;;;-0.10;99.90;;;-1.14;100.00;101650.09;4168370;28;20432;-78
2023/11/26 03:39:20;;;;;;;25.67;17.25;;;-0.10;99.90;;;-1.12;100.00;101643.94;4168410;28;20034;-79
2023/11/26 03:41:21;;;;;;;32.50;19.65;;;-0.10;99.90;;;-1.07;100.00;101637.72;4168270;28;20037;-78
2023/11/26 03:43:22;;;;;;;27.92;18.42;;;-0.10;99.90;;;-0.99;100.00;101646.06;4161263;28;20480;-78
2023/11/26 03:45:22;;;;;;;29.63;17.65;;;0.00;99.90;;;-0.95;100.00;101645.00;4168043;28;20053;-78
2023/11/26 03:47:23;;;;;;;23.83;16.35;;;0.00;99.90;;;-0.92;100.00;101637.97;4169461;28;20053;-78
2023/11/26 03:49:24;;;;;;;29.27;17.27;;;0.10;99.90;;;-0.82;100.00;101641.88;4168146;28;20025;-78
2023/11/26 03:51:26;;;;;;;22.75;16.02;;;0.20;99.90;;;-0.75;100.00;101640.75;4168371;28;20496;-76
2023/11/26 03:53:27;;;;;;;32.70;18.13;;;0.20;99.90;;;-0.69;100.00;101631.88;4152074;28;20034;-76
2023/11/26 03:55:28;;;;;;;26.67;16.10;;;0.30;99.90;;;-0.59;100.00;101638.34;4151692;28;20026;-76
2023/11/26 03:57:29;;;;;;;31.30;17.70;;;0.40;99.90;;;-0.60;100.00;101634.09;4169041;28;20029;-76
2023/11/26 03:59:30;;;;;;;30.10;19.65;;;0.40;99.90;;;-0.60;100.00;101642.69;4151719;28;20394;-76
2023/11/26 04:01:31;;;;;;;30.02;18.88;;;0.40;99.90;;;-0.63;100.00;101647.97;4169192;28;20032;-76
2023/11/26 04:03:33;;;;;;;34.80;18.10;;;0.40;99.90;;;-0.60;100.00;101644.44;4167971;28;20413;-76
2023/11/26 04:05:34;;;;;;;31.58;20.65;;;0.40;99.90;;;-0.60;100.00;101636.69;4169313;28;20412;-75
2023/11/26 04:07:34;;;;;;;26.70;17.60;;;0.40;99.90;;;-0.54;100.00;101649.38;4167668;28;20033;-75
2023/11/26 04:09:35;;;;;;;31.77;20.25;;;0.40;99.90;;;-0.53;100.00;101648.44;4151496;28;20029;-75
2023/11/26 04:11:36;;;;;;;31.45;19.33;;;0.50;99.90;;;-0.49;100.00;101646.59;4169099;28;20026;-75
2023/11/26 04:13:37;;;;;;;34.33;19.98;;;0.50;99.90;;;-0.48;100.00;101643.94;4167813;28;20025;-75
2023/11/26 04:15:44;;;;;;;30.77;19.98;;;0.50;99.90;;;-0.41;100.00;101645.34;4151287;28;20129;-75
2023/11/26 04:17:45;;;;;;;29.15;18.38;;;0.50;99.90;;;-0.34;100.00;101645.94;4168814;28;20120;-75
2023/11/26 04:19:47;;;;;;;28.08;19.55;;;0.60;99.90;;;-0.32;100.00;101641.53;4162157;28;20547;-75
2023/11/26 04:21:48;;;;;;;33.03;20.83;;;0.60;99.90;;;-0.28;100.00;101646.53;4144368;28;20081;-75
2023/11/26 04:23:49;;;;;;;29.55;19.02;;;0.70;99.90;;;-0.23;100.00;101648.91;4167131;28;20032;-76
2023/11/26 04:25:50;;;;;;;29.20;19.25;;;0.70;99.90;;;-0.21;100.00;101640.16;4168635;28;20029;-76
2023/11/26 04:27:51;;;;;;;29.33;18.95;;;0.70;99.90;;;-0.18;100.00;101637.44;4169032;28;20026;-75
2023/11/26 04:29:52;;;;;;;29.48;19.05;;;0.70;99.90;;;-0.18;100.00;101636.63;4168873;28;20028;-76
2023/11/26 04:31:52;;;;;;;28.13;19.60;;;0.80;99.90;;;-0.14;100.00;101644.19;4168784;28;20044;-75
2023/11/26 04:33:54;;;;;;;26.23;18.65;;;0.80;99.90;;;-0.12;100.00;101644.97;4168744;28;20021;-75
2023/11/26 04:35:55;;;;;;;25.23;16.88;;;0.80;99.90;;;-0.07;100.00;101647.38;4168806;28;20064;-75
2023/11/26 04:37:56;;;;;;;29.13;18.15;;;0.80;99.90;;;-0.06;100.00;101634.31;4150823;28;20018;-76
2023/11/26 04:39:57;;;;;;;25.52;17.38;;;0.90;99.90;;;-0.02;100.00;101633.28;4134803;28;20030;-76
2023/11/26 04:41:58;;;;;;;30.75;19.98;;;0.90;99.90;;;-0.06;100.00;101633.50;4168679;28;20369;-76
2023/11/26 04:43:59;;;;;;;29.33;18.90;;;0.90;99.90;;;-0.06;100.00;101631.72;4168783;28;20025;-75
2023/11/26 04:46:00;;;;;;;29.67;18.85;;;0.90;99.90;;;-0.15;100.00;101618.34;4168392;28;20042;-75
2023/11/26 04:48:01;;;;;;;32.90;20.30;;;0.80;99.90;;;-0.18;100.00;101624.47;4168606;28;20515;-75
2023/11/26 04:50:04;;;;;;;34.30;19.40;;;0.80;99.90;;;-0.22;100.00;101622.94;4153094;28;20026;-75
2023/11/26 04:52:05;;;;;;;29.50;17.63;;;0.70;99.90;;;-0.26;100.00;101629.16;4167923;28;20022;-78
2023/11/26 04:54:11;;;;;;;29.23;17.95;;;0.70;99.90;;;-0.30;100.00;101619.81;4168752;28;20056;-78
2023/11/26 04:56:13;;;;;;;30.90;19.67;;;0.60;99.90;;;-0.33;100.00;101625.13;4167396;28;20025;-78
2023/11/26 04:58:14;;;;;;;32.70;18.30;;;0.60;99.90;;;-0.34;100.00;101622.63;4168178;28;20546;-78
2023/11/26 05:00:16;;;;;;;30.88;18.30;;;0.60;99.90;;;-0.37;100.00;101613.22;4167294;28;20029;-78
2023/11/26 05:02:18;;;;;;;27.95;18.95;;;0.60;99.90;;;-0.40;100.00;101613.34;4134532;28;20037;-78
2023/11/26 05:04:19;;;;;;;34.20;21.83;;;0.60;99.90;;;-0.41;100.00;101618.59;4150984;28;20030;-78
2023/11/26 05:06:20;;;;;;;33.55;20.63;;;0.50;99.90;;;-0.47;100.00;101611.91;4168077;28;20124;-78
2023/11/26 05:08:21;;;;;;;35.90;23.27;;;0.50;99.90;;;-0.49;100.00;101613.75;4150907;28;20022;-78
2023/11/26 05:10:22;;;;;;;37.50;23.02;;;0.40;99.90;;;-0.50;100.00;101618.97;4151010;28;20033;-78
2023/11/26 05:12:23;;;;;;;34.50;21.25;;;0.40;99.90;;;-0.53;100.00;101612.19;4168403;28;20025;-75
2023/11/26 05:14:24;;;;;;;30.40;21.02;;;0.40;99.90;;;-0.52;100.00;101624.25;4168304;28;20404;-75
2023/11/26 05:16:25;;;;;;;32.67;20.15;;;0.30;99.90;;;-0.58;100.00;101614.13;4168500;28;20021;-75
2023/11/26 05:18:26;;;;;;;38.38;21.75;;;0.40;99.90;;;-0.58;100.00;101614.97;4167211;28;20040;-75
2023/11/26 05:20:26;;;;;;;36.50;20.38;;;0.40;99.90;;;-0.62;100.00;101616.00;4150722;28;20077;-76
2023/11/26 05:22:28;;;;;;;34.45;20.98;;;0.30;99.90;;;-0.63;100.00;101618.66;4167187;28;20039;-75
2023/11/26 05:24:29;;;;;;;34.85;20.85;;;0.30;99.90;;;-0.68;100.00;101608.47;4156789;28;20535;-75
2023/11/26 05:26:29;;;;;;;34.63;19.95;;;0.30;99.90;;;-0.71;100.00;101615.53;4166848;28;20034;-78
2023/11/26 05:28:31;;;;;;;31.95;21.67;;;0.30;99.90;;;-0.64;100.00;101619.56;4153469;28;20030;-78
2023/11/26 05:30:32;;;;;;;29.75;19.40;;;0.30;99.90;;;-0.69;100.00;101619.75;4148719;28;20034;-78
2023/11/26 05:32:33;;;;;;;33.72;20.20;;;0.30;99.90;;;-0.65;100.00;101623.06;4138621;28;20570;-78
2023/11/26 05:34:33;;;;;;;29.63;18.70;;;0.30;99.90;;;-0.65;100.00;101620.47;4168339;28;20021;-76
2023/11/26 05:36:34;;;;;;;27.33;18.08;;;0.30;99.90;;;-0.67;100.00;101617.94;4171132;28;20029;-76
2023/11/26 05:38:35;;;;;;;30.92;18.67;;;0.30;99.90;;;-0.61;100.00;101624.63;4170075;28;20033;-75
2023/11/26 05:40:36;;;;;;;26.48;17.23;;;0.30;99.90;;;-0.61;100.00;101619.44;4171375;28;20025;-75
2023/11/26 05:42:37;;;;;;;28.88;17.33;;;0.40;99.90;;;-0.59;100.00;101617.63;4170290;28;20029;-75
2023/11/26 05:44:38;;;;;;;25.42;17.13;;;0.40;99.90;;;-0.56;100.00;101617.50;4169960;28;20219;-75
2023/11/26 05:46:43;;;;;;;27.95;17.52;;;0.40;99.90;;;-0.53;100.00;101612.19;4171226;28;20038;-75
2023/11/26 05:48:45;;;;;;;32.60;19.55;;;0.40;99.90;;;-0.48;100.00;101615.44;4171425;28;20050;-75
2023/11/26 05:50:46;;;;;;;32.10;20.35;;;0.40;99.90;;;-0.46;100.00;101600.66;4171314;28;20025;-75
2023/11/26 05:52:47;;;;;;;27.67;18.00;;;0.50;99.90;;;-0.45;100.00;101601.50;4169216;28;20060;-75
2023/11/26 05:54:48;;;;;;;30.60;19.60;;;0.50;99.90;;;-0.51;100.00;101594.84;4153472;28;20594;-75
2023/11/26 05:56:50;;;;;;;28.17;18.50;;;0.50;99.90;;;-0.50;100.00;101600.84;4169968;28;20029;-75
2023/11/26 05:58:51;;;;;;;32.33;18.55;;;0.50;99.90;;;-0.50;100.00;101601.69;4160618;28;20554;-75
2023/11/26 06:00:51;;;;;;;30.65;17.83;;;0.50;99.90;;;-0.49;100.00;101610.31;4169782;28;20033;-75
2023/11/26 06:02:52;;;;;;;28.55;16.90;;;0.50;99.90;;;-0.56;100.00;101602.78;4187351;28;20403;-75
2023/11/26 06:04:53;;;;;;;34.88;18.50;;;0.40;99.90;;;-0.56;100.00;101601.94;4187564;28;20033;-75
2023/11/26 06:06:54;;;;;;;27.17;17.73;;;0.40;99.90;;;-0.49;100.00;101605.97;4169536;28;20036;-75
2023/11/26 06:08:55;;;;;;;24.77;17.45;;;0.40;99.90;;;-0.50;100.00;101598.25;4170552;28;20505;-75
2023/11/26 06:10:56;;;;;;;23.40;16.60;;;0.40;99.90;;;-0.52;100.00;101600.91;4170981;28;20044;-75
2023/11/26 06:12:56;;;;;;;26.27;16.98;;;0.40;99.90;;;-0.58;100.00;101601.16;4169067;28;20449;-75
2023/11/26 06:14:57;;;;;;;28.30;17.23;;;0.40;99.90;;;-0.67;100.00;101597.22;4149116;28;20026;-75
2023/11/26 06:16:58;;;;;;;24.73;16.73;;;0.30;99.90;;;-0.69;100.00;101608.56;4187349;28;20037;-75
2023/11/26 06:18:59;;;;;;;28.17;18.48;;;0.30;99.90;;;-0.75;100.00;101606.22;4187225;28;20071;-75
2023/11/26 06:21:00;;;;;;;26.98;18.23;;;0.20;99.90;;;-0.74;100.00;101607.88;4169112;28;20026;-75
2023/11/26 06:23:01;;;;;;;31.80;18.40;;;0.20;99.90;;;-0.75;100.00;101606.22;4183624;28;20021;-75
2023/11/26 06:25:02;;;;;;;24.92;16.42;;;0.20;99.90;;;-0.73;100.00;101607.00;4152780;28;20502;-75
2023/11/26 06:27:03;;;;;;;29.23;17.08;;;0.20;99.90;;;-0.75;100.00;101590.69;4170632;28;20033;-75
2023/11/26 06:29:08;;;;;;;26.70;16.90;;;0.20;99.90;;;-0.72;100.00;101591.38;4170627;28;20032;-76
2023/11/26 06:31:08;;;;;;;28.25;17.88;;;0.20;99.90;;;-0.69;100.00;101595.59;4169540;28;20082;-75
2023/11/26 06:33:09;;;;;;;25.05;16.02;;;0.20;99.90;;;-0.68;100.00;101592.09;4167353;28;20022;-75
2023/11/26 06:35:12;;;;;;;26.70;16.83;;;0.30;99.90;;;-0.65;100.00;101591.97;4149074;28;20405;-75
2023/11/26 06:37:12;;;;;;;27.30;18.40;;;0.30;99.90;;;-0.61;100.00;101593.53;4170156;28;20037;-75
2023/11/26 06:39:14;;;;;;;27.60;17.75;;;0.40;99.90;;;-0.60;100.00;101592.63;4170578;28;20063;-76
2023/11/26 06:41:27;;;;;;;29.20;17.70;;;0.40;99.90;;;-0.60;100.00;101588.28;4152717;28;20056;-75
2023/11/26 06:43:28;;;;;;;25.33;16.77;;;0.40;99.90;;;-0.54;100.00;101604.47;4153213;28;20033;-75
2023/11/26 06:45:29;;;;;;;27.35;16.50;;;0.40;99.90;;;-0.58;100.00;101590.81;4170045;28;20049;-76
2023/11/26 06:47:30;;;;;;;25.95;18.27;;;0.40;99.90;;;-0.57;100.00;101597.69;4169011;28;20032;-78
2023/11/26 06:49:31;;;;;;;29.42;17.63;;;0.40;99.90;;;-0.59;100.00;101586.53;4170302;28;20542;-78
2023/11/26 06:51:32;;;;;;;26.48;17.48;;;0.40;99.90;;;-0.55;100.00;101590.69;4168080;28;20022;-76
2023/11/26 06:53:33;;;;;;;26.98;15.23;;;0.40;99.90;;;-0.52;100.00;101594.88;4171021;28;20021;-75
2023/11/26 06:55:34;;;;;;;23.05;15.10;;;0.40;99.90;;;-0.52;100.00;101587.13;4169076;28;20023;-75
2023/11/26 06:57:35;;;;;;;23.35;15.15;;;0.50;99.90;;;-0.47;100.00;101596.38;4176740;28;20033;-75
2023/11/26 06:59:36;;;;;;;22.45;15.43;;;0.50;99.90;;;-0.45;100.00;101589.41;4170072;28;20025;-75
2023/11/26 07:01:37;;;;;;;22.98;14.60;;;0.50;99.90;;;-0.42;100.00;101593.59;4170232;28;20467;-75
2023/11/26 07:03:39;;;;;;;24.30;14.55;;;0.50;99.90;;;-0.42;100.00;101593.59;4174953;28;20017;-75
2023/11/26 07:05:40;;;;;;;24.55;16.38;;;0.60;99.90;;;-0.35;100.00;101593.25;4169066;28;20041;-75
2023/11/26 07:07:41;;;;;;;25.73;14.43;;;0.60;99.90;;;-0.28;100.00;101596.44;4186271;28;20025;-75
2023/11/26 07:09:42;;;;;;;20.25;13.20;;;0.60;99.90;;;-0.28;100.00;101586.91;4168760;28;20036;-75
2023/11/26 07:11:45;;;;;;;21.35;14.30;;;0.70;99.90;;;-0.20;100.00;101595.19;4168911;28;20036;-75
2023/11/26 07:13:47;;;;;;;18.40;14.32;;;0.70;99.90;;;-0.16;100.00;101596.75;4178729;28;20020;-75
2023/11/26 07:15:48;;;;;;;21.63;13.95;;;0.70;99.90;;;-0.11;100.00;101593.94;4168597;28;20101;-75
2023/11/26 07:17:49;;;;;;;21.73;14.68;;;0.80;99.90;;;-0.09;100.00;101589.56;4169835;28;20033;-75
2023/11/26 07:19:51;;;;;;;22.65;14.05;;;0.80;99.90;;;-0.09;100.00;101577.41;4168610;28;20440;-75
2023/11/26 07:21:52;;;;;;;24.17;15.73;;;0.90;99.90;;;-0.04;100.00;101590.19;4152117;28;20036;-75
2023/11/26 07:23:53;;;;;;;26.73;16.10;;;0.90;99.90;;;0.00;100.00;101591.75;4159994;28;20517;-75
2023/11/26 07:25:53;;;;;;;19.63;13.75;;;0.90;99.90;;;0.03;100.00;101582.97;4166891;28;20036;-75
2023/11/26 07:27:57;;;;;;;23.25;15.27;;;0.90;99.90;;;0.05;100.00;101587.19;4168569;28;20025;-75
2023/11/26 07:29:57;;;;;;;29.08;16.63;;;0.90;99.90;;;0.10;100.00;101592.16;4168791;28;20034;-75
2023/11/26 07:31:59;;;;;;;23.60;15.68;;;1.00;99.90;;;0.10;100.00;101586.97;4168475;28;20083;-75
2023/11/26 07:34:00;;;;;;;23.27;15.00;;;1.00;99.90;;;0.12;100.00;101583.38;4176634;28;20048;-75
2023/11/26 07:36:01;;;;;;;26.08;15.63;;;1.00;99.90;;;0.13;100.00;101581.63;4168327;28;20021;-75
2023/11/26 07:38:03;;;;;;;27.02;16.55;;;1.10;99.90;;;0.15;100.00;101585.84;4151981;28;20060;-75
2023/11/26 07:40:05;;;;;;;25.27;16.63;;;1.10;99.90;;;0.14;100.00;101583.31;4169375;28;20018;-75
2023/11/26 07:42:06;;;;;;;22.77;14.32;;;1.10;99.90;;;0.15;100.00;101582.44;4168147;28;20097;-76
2023/11/26 07:44:09;;;;;;;22.65;15.27;;;1.10;99.90;;;0.18;100.00;101588.28;4152503;28;20542;-75
2023/11/26 07:46:12;;;;;;;21.13;14.67;;;1.10;99.90;;;0.19;100.00;101582.19;4185877;28;20047;-75
2023/11/26 07:48:13;;;;;;;20.10;14.35;;;1.10;99.90;;;0.23;100.00;101580.31;4185826;28;20028;-75
2023/11/26 07:50:14;;;;;;;20.95;13.60;;;1.20;99.90;;;0.26;100.00;101580.19;4168047;28;20401;-76
2023/11/26 07:52:15;;;;;;;20.65;13.77;;;1.20;99.90;;;0.30;100.00;101581.72;4165932;28;20026;-75
2023/11/26 07:54:16;;;;;;;25.77;16.02;;;1.20;99.90;;;0.37;100.00;101578.78;4156980;28;20026;-75
2023/11/26 07:56:17;;;;;;;21.27;13.98;;;1.30;99.90;;;0.41;100.00;101585.50;4151040;28;20547;-75
2023/11/26 07:58:22;;;;;;;21.67;13.48;;;1.30;99.90;;;0.46;100.00;101585.28;4168164;28;20030;-75
2023/11/26 08:00:23;;;;;;;20.75;13.80;;;1.40;99.90;;;0.51;100.00;101584.16;4167754;28;20084;-77
2023/11/26 08:02:24;;;;;;;26.63;16.05;;;1.40;99.90;;;0.54;100.00;101591.78;4142650;28;20497;-75
2023/11/26 08:04:26;;;;;;;22.23;15.30;;;1.40;99.90;;;0.60;100.00;101593.25;4147590;28;20036;-75
2023/11/26 08:06:28;;;;;;;21.40;14.88;;;1.50;99.90;;;0.66;100.00;101592.16;4150516;28;20405;-76
2023/11/26 08:08:37;;;;;;;24.02;15.50;;;1.50;99.90;;;0.72;100.00;101595.28;4169093;28;20029;-76
2023/11/26 08:10:37;;;;;;;29.25;16.63;;;1.60;99.90;;;0.75;100.00;101584.75;4167913;28;20037;-75
2023/11/26 08:12:39;;;;;;;21.83;15.00;;;1.60;99.90;;;0.82;100.00;101590.50;4151417;28;20025;-75
2023/11/26 08:14:41;;;;;;;21.27;14.25;;;1.70;99.90;;;0.89;100.00;101589.31;4137820;28;20608;-75
2023/11/26 08:16:43;;;;;;;21.80;15.07;;;1.80;99.90;;;0.96;100.00;101595.88;4168100;28;20022;-75
2023/11/26 08:18:44;;;;;;;28.08;14.98;;;1.80;99.90;;;0.99;100.00;101596.56;4167723;28;20040;-75
2023/11/26 08:20:46;;;;;;;23.85;16.73;;;1.90;99.90;;;1.04;100.00;101607.59;4167614;28;20034;-75